createdAt,value
2022-09-15T00:04:20.897Z,88.91
2022-09-15T00:09:22.143Z,90.55
2022-09-15T00:14:23.380Z,91.14
2022-09-15T00:19:24.662Z,90.96
2022-09-15T00:24:25.920Z,91.00
2022-09-15T00:29:27.330Z,90.97
2022-09-15T00:34:28.679Z,92.10
2022-09-15T00:39:29.948Z,93.36
2022-09-15T00:44:31.208Z,94.90
2022-09-15T00:49:32.477Z,95.74
2022-09-15T00:54:33.745Z,96.12
2022-09-15T00:59:35.066Z,95.23
2022-09-15T01:04:36.566Z,93.80
2022-09-15T01:09:37.834Z,92.51
2022-09-15T01:14:39.101Z,91.18
2022-09-15T01:19:40.379Z,90.51
2022-09-15T01:24:41.642Z,90.21
2022-09-15T01:29:43.038Z,89.00
2022-09-15T01:34:44.278Z,89.92
2022-09-15T01:39:45.905Z,89.74
2022-09-15T01:44:47.517Z,89.34
2022-09-15T01:49:48.773Z,89.48
2022-09-15T01:54:50.010Z,91.12
2022-09-15T01:59:51.334Z,92.10
2022-09-15T02:04:52.918Z,92.10
2022-09-15T02:09:54.707Z,92.70
2022-09-15T02:14:56.015Z,92.87
2022-09-15T02:19:57.296Z,93.75
2022-09-15T02:24:58.953Z,93.53
2022-09-15T02:30:00.258Z,94.50
2022-09-15T02:35:04.756Z,94.54
2022-09-15T02:40:06.206Z,96.37
2022-09-15T02:45:07.524Z,95.97
2022-09-15T02:50:08.759Z,96.39
2022-09-15T02:55:09.994Z,95.92
2022-09-15T03:00:14.613Z,96.53
2022-09-15T03:05:15.909Z,95.31
2022-09-15T03:10:17.175Z,94.01
2022-09-15T03:15:18.406Z,94.07
2022-09-15T03:20:20.180Z,93.44
2022-09-15T03:25:21.462Z,92.90
2022-09-15T03:30:22.696Z,93.15
2022-09-15T03:35:23.946Z,93.51
2022-09-15T03:40:25.260Z,93.56
2022-09-15T03:45:26.847Z,94.98
2022-09-15T03:50:28.183Z,96.64
2022-09-15T03:55:29.445Z,97.08
2022-09-15T04:00:30.697Z,96.54
2022-09-15T04:05:32.081Z,96.26
2022-09-15T04:10:33.359Z,96.19
2022-09-15T04:15:34.714Z,96.17
2022-09-15T04:20:35.947Z,97.10
2022-09-15T04:25:37.205Z,96.49
2022-09-15T04:30:38.426Z,95.98
2022-09-15T04:35:39.659Z,95.57
2022-09-15T04:40:40.890Z,96.55
2022-09-15T04:45:42.128Z,96.35
2022-09-15T04:50:43.368Z,96.75
2022-09-15T04:55:44.723Z,97.57
2022-09-15T05:00:46.056Z,97.68
2022-09-15T05:05:47.339Z,97.09
2022-09-15T05:10:48.671Z,96.78
2022-09-15T05:15:50.000Z,95.13
2022-09-15T05:20:51.285Z,94.83
2022-09-15T05:25:52.552Z,94.03
2022-09-15T05:30:53.883Z,93.41
2022-09-15T05:35:55.138Z,93.11
2022-09-15T05:40:56.391Z,94.05
2022-09-15T05:45:57.627Z,93.09
2022-09-15T05:50:58.899Z,93.86
2022-09-15T05:56:00.139Z,94.11
2022-09-15T06:01:01.468Z,92.10
2022-09-15T06:06:02.759Z,92.11
2022-09-15T06:11:04.043Z,91.60
2022-09-15T06:16:05.481Z,91.39
2022-09-15T06:21:07.030Z,91.00
2022-09-15T06:26:08.319Z,90.67
2022-09-15T06:31:09.578Z,90.67
2022-09-15T06:36:11.748Z,91.54
2022-09-15T06:41:13.074Z,91.61
2022-09-15T06:46:14.410Z,90.69
2022-09-15T06:51:16.973Z,89.14
2022-09-15T06:56:18.231Z,89.20
2022-09-15T07:01:19.532Z,88.77
2022-09-15T07:06:20.808Z,88.48
2022-09-15T07:11:41.667Z,88.08
2022-09-15T07:16:43.011Z,87.79
2022-09-15T07:21:44.308Z,88.42
2022-09-15T07:26:45.582Z,88.71
2022-09-15T07:31:46.855Z,89.14
2022-09-15T07:36:48.143Z,88.29
2022-09-15T07:41:49.478Z,89.58
2022-09-15T07:46:50.838Z,89.03
2022-09-15T07:51:52.187Z,89.41
2022-09-15T07:56:53.547Z,90.26
2022-09-15T08:01:54.863Z,90.72
2022-09-15T08:06:56.494Z,89.02
2022-09-15T08:11:57.932Z,90.53
2022-09-15T08:17:08.128Z,88.83
2022-09-15T08:22:12.124Z,89.30
2022-09-15T08:27:13.354Z,89.92
2022-09-15T08:32:14.982Z,88.49
2022-09-15T08:37:16.287Z,89.15
2022-09-15T08:42:17.571Z,89.66
2022-09-15T08:47:18.852Z,90.66
2022-09-15T08:52:20.272Z,90.91
2022-09-15T08:57:21.677Z,90.23
2022-09-15T09:07:51.383Z,90.94
2022-09-15T09:12:52.742Z,90.40
2022-09-15T09:17:54.051Z,90.97
2022-09-15T09:22:55.353Z,92.71
2022-09-15T09:27:56.830Z,92.51
2022-09-15T09:32:58.116Z,92.99
2022-09-15T09:38:00.345Z,92.41
2022-09-15T09:43:01.704Z,93.69
2022-09-15T09:48:03.509Z,94.98
2022-09-15T09:53:04.778Z,96.43
2022-09-15T09:58:06.111Z,92.93
2022-09-15T10:03:07.416Z,93.62
2022-09-15T10:08:08.760Z,96.51
2022-09-15T10:13:09.999Z,95.08
2022-09-15T10:18:11.264Z,94.43
2022-09-15T10:23:12.590Z,93.02
2022-09-15T10:28:14.391Z,93.03
2022-09-15T10:33:15.700Z,96.38
2022-09-15T10:38:17.096Z,95.36
2022-09-15T10:43:18.318Z,92.75
2022-09-15T10:48:19.697Z,94.13
2022-09-15T10:53:21.179Z,95.03
2022-09-15T10:58:22.812Z,94.01
2022-09-15T11:03:24.297Z,93.27
2022-09-15T11:08:26.453Z,94.11
2022-09-15T11:13:30.814Z,93.69
2022-09-15T11:18:32.443Z,94.44
2022-09-15T11:23:33.977Z,92.05
2022-09-15T11:28:35.423Z,91.28
2022-09-15T11:33:36.675Z,91.55
2022-09-15T11:38:37.982Z,89.23
2022-09-15T11:43:39.222Z,89.47
2022-09-15T11:48:40.459Z,87.60
2022-09-15T11:53:41.789Z,87.56
2022-09-15T11:58:43.074Z,92.21
2022-09-15T12:03:44.365Z,88.80
2022-09-15T12:08:45.665Z,87.58
2022-09-15T12:13:46.978Z,86.68
2022-09-15T12:18:48.237Z,87.95
2022-09-15T12:23:49.500Z,85.74
2022-09-15T12:28:50.979Z,87.07
2022-09-15T12:33:53.422Z,86.98
2022-09-15T12:38:54.717Z,86.20
2022-09-15T12:43:55.970Z,85.64
2022-09-15T12:48:57.651Z,85.57
2022-09-15T12:53:59.273Z,85.65
2022-09-15T12:59:04.570Z,84.11
2022-09-15T13:04:07.979Z,85.22
2022-09-15T13:09:09.354Z,82.41
2022-09-15T13:14:11.506Z,83.73
2022-09-15T13:19:12.745Z,82.33
2022-09-15T13:24:14.397Z,84.09
2022-09-15T13:29:15.858Z,82.53
2022-09-15T13:39:38.530Z,87.04
2022-09-15T13:44:39.800Z,86.69
2022-09-15T13:49:41.205Z,85.38
2022-09-15T13:54:42.484Z,84.06
2022-09-15T13:59:43.762Z,85.61
2022-09-15T14:04:45.129Z,87.16
2022-09-15T14:09:47.672Z,83.62
2022-09-15T14:20:06.151Z,89.33
2022-09-15T14:25:09.188Z,89.46
2022-09-15T14:30:10.822Z,91.16
2022-09-15T14:35:14.896Z,92.68
2022-09-15T14:40:19.371Z,92.07
2022-09-15T14:50:47.937Z,90.99
2022-09-15T14:55:49.215Z,90.74
2022-09-15T15:00:51.073Z,94.04
2022-09-15T15:05:58.119Z,96.53
2022-09-15T15:11:04.162Z,95.26
2022-09-15T15:16:05.493Z,96.40
2022-09-15T15:21:06.848Z,94.53
2022-09-15T15:26:09.039Z,94.84
2022-09-15T15:36:59.417Z,94.54
2022-09-15T15:42:00.771Z,93.04
2022-09-15T15:47:02.438Z,91.53
2022-09-15T15:52:03.965Z,90.44
2022-09-15T15:57:05.237Z,90.90
2022-09-15T16:02:06.959Z,89.53
2022-09-15T16:07:08.426Z,87.84
2022-09-15T16:12:09.788Z,87.28
2022-09-15T16:17:11.117Z,85.83
2022-09-15T16:22:12.413Z,85.41
2022-09-15T16:27:13.690Z,84.77
2022-09-15T16:32:15.078Z,85.36
2022-09-15T16:37:16.430Z,83.55
2022-09-15T16:42:17.802Z,86.09
2022-09-15T16:47:19.127Z,85.69
2022-09-15T16:52:20.401Z,83.84
2022-09-15T16:57:22.408Z,83.65
2022-09-15T17:02:23.758Z,83.97
2022-09-15T17:07:28.591Z,83.03
2022-09-15T17:12:29.838Z,82.20
2022-09-15T17:17:31.199Z,83.35
2022-09-15T17:22:32.601Z,84.27
2022-09-15T17:27:34.011Z,83.21
2022-09-15T17:32:35.882Z,84.43
2022-09-15T17:37:37.113Z,84.91
2022-09-15T17:42:38.440Z,86.24
2022-09-15T17:47:39.695Z,87.19
2022-09-15T17:52:40.935Z,87.64
2022-09-15T17:57:55.173Z,87.65
2022-09-15T18:02:56.508Z,85.28
2022-09-15T18:07:57.772Z,85.96
2022-09-15T18:12:59.004Z,85.16
2022-09-15T18:18:00.551Z,84.20
2022-09-15T18:23:01.902Z,83.62
2022-09-15T18:28:03.208Z,83.32
2022-09-15T18:33:04.483Z,82.79
2022-09-15T18:38:05.753Z,83.02
2022-09-15T18:43:07.019Z,82.94
2022-09-15T18:48:12.049Z,82.51
2022-09-15T18:53:14.533Z,82.35
2022-09-15T18:58:15.802Z,81.84
2022-09-15T19:03:17.070Z,82.32
2022-09-15T19:14:23.949Z,83.27
2022-09-15T19:19:25.362Z,83.47
2022-09-15T19:24:31.968Z,83.19
2022-09-15T19:29:34.809Z,83.05
2022-09-15T19:34:36.988Z,82.59
2022-09-15T19:39:38.487Z,82.88
2022-09-15T19:44:39.715Z,83.43
2022-09-15T19:49:41.066Z,82.42
2022-09-15T19:54:42.333Z,81.26
2022-09-15T19:59:46.592Z,81.09
2022-09-15T20:04:48.587Z,81.00
2022-09-15T20:09:53.116Z,80.33
2022-09-15T20:15:12.737Z,81.11
2022-09-15T20:20:14.279Z,82.01
2022-09-15T20:25:15.543Z,82.10
2022-09-15T20:30:18.628Z,83.07
2022-09-15T20:35:22.576Z,83.34
2022-09-15T20:40:23.845Z,82.58
2022-09-15T20:45:37.107Z,81.07
2022-09-15T20:50:38.567Z,80.36
2022-09-15T20:55:39.870Z,80.44
2022-09-15T21:00:41.115Z,79.43
2022-09-15T21:05:42.555Z,79.13
2022-09-15T21:10:43.837Z,79.32
2022-09-15T21:15:45.062Z,80.03
2022-09-15T21:20:47.755Z,80.62
2022-09-15T21:25:49.172Z,79.89
2022-09-15T21:30:50.734Z,79.52
2022-09-15T21:35:52.340Z,79.21
2022-09-15T21:40:53.579Z,80.87
2022-09-15T21:45:55.514Z,82.45
2022-09-15T21:50:56.795Z,83.11
2022-09-15T21:55:58.058Z,81.52
2022-09-15T22:00:59.944Z,80.89
2022-09-15T22:06:01.868Z,80.69
2022-09-15T22:11:03.146Z,80.98
2022-09-15T22:16:04.551Z,82.20
2022-09-15T22:21:05.956Z,83.90
2022-09-15T22:26:07.194Z,85.50
2022-09-15T22:31:08.487Z,85.88
2022-09-15T22:36:09.837Z,86.22
2022-09-15T22:41:12.068Z,86.81
2022-09-15T22:46:13.528Z,87.46
2022-09-15T22:51:14.946Z,86.43
2022-09-15T22:56:19.667Z,87.27
2022-09-15T23:01:21.036Z,86.63
2022-09-15T23:06:22.676Z,85.81
2022-09-15T23:11:23.980Z,85.71
2022-09-15T23:16:25.395Z,84.88
2022-09-15T23:21:28.017Z,85.05
2022-09-15T23:26:29.370Z,84.41
2022-09-15T23:31:30.667Z,84.65
2022-09-15T23:36:31.928Z,84.83
2022-09-15T23:41:33.256Z,86.32
2022-09-15T23:46:34.650Z,86.53
2022-09-15T23:51:36.070Z,86.97
2022-09-15T23:56:37.398Z,88.25
